Terminal Aerodrome Forecast
Issued by NWS

Home | Current Version | Previous Version | Text Only | Print | Product List | Glossary On
Versions: 1 2 3 4 5 6 7 8 9 10 11 12 13 14
312
FTUS42 KGSP 031739
TAFAND
TAF
KAND 031739Z 0318/0418 12003KT P6SM BKN150 BKN250
     FM032000 16003KT P6SM BKN140 BKN180
     FM040300 VRB03KT P6SM VCSH OVC070 PROB30 0404/0409 4SM -RA
      OVC040
     FM040900 06003KT 4SM -RA BR OVC050
     FM041200 07005KT 3SM -RA BR SCT007 OVC015=

USA.gov is the U.S. government's official web portal to all federal, state and local government web resources and services.